createdAt,value
2019-06-08T00:01:58.881Z,100264.07
2019-06-08T00:04:26.551Z,100274.37
2019-06-08T00:06:54.220Z,100267.02
2019-06-08T00:09:22.551Z,100268.23
2019-06-08T00:11:51.250Z,100297.30
2019-06-08T00:14:19.171Z,100290.68
2019-06-08T00:16:46.964Z,100269.55
2019-06-08T00:19:15.285Z,100280.44
2019-06-08T00:21:43.077Z,100285.27
2019-06-08T00:24:11.026Z,100298.48
2019-06-08T00:26:38.680Z,100302.89
2019-06-08T00:29:06.331Z,100323.07
2019-06-08T00:31:33.998Z,100334.13
2019-06-08T00:34:01.744Z,100342.55
2019-06-08T00:36:29.468Z,100359.28
2019-06-08T00:38:57.150Z,100377.64
2019-06-08T00:41:25.528Z,100398.02
2019-06-08T00:43:53.737Z,100418.04
2019-06-08T00:46:21.461Z,100428.21
2019-06-08T00:48:49.233Z,100436.79
2019-06-08T00:51:16.898Z,100450.49
2019-06-08T00:53:44.560Z,100473.70
2019-06-08T00:56:12.225Z,100476.59
2019-06-08T00:58:39.880Z,100477.59
2019-06-08T01:01:07.546Z,100484.83
2019-06-08T01:03:35.188Z,100498.75
2019-06-08T01:06:02.857Z,100493.89
2019-06-08T01:10:56.429Z,100496.38
2019-06-08T01:13:24.903Z,100484.14
2019-06-08T01:18:20.717Z,100483.99
2019-06-08T01:20:47.980Z,100479.66
2019-06-08T01:25:41.575Z,100505.56
2019-06-08T01:28:09.288Z,100503.02
2019-06-08T01:33:02.951Z,100519.55
2019-06-08T01:35:30.965Z,100532.82
2019-06-08T01:37:58.734Z,100540.60
2019-06-08T01:40:27.477Z,100544.99
2019-06-08T01:42:55.233Z,100559.50
2019-06-08T01:45:32.809Z,100558.52
2019-06-08T01:48:00.631Z,100565.28
2019-06-08T01:50:28.442Z,100576.44
2019-06-08T01:52:56.211Z,100587.25
2019-06-08T01:55:25.068Z,100601.88
2019-06-08T01:57:52.899Z,100608.72
2019-06-08T02:00:29.883Z,100606.34
2019-06-08T02:02:50.598Z,100618.69
2019-06-08T02:05:18.678Z,100624.63
2019-06-08T02:07:46.393Z,100627.66
2019-06-08T02:10:14.052Z,100632.73
2019-06-08T02:12:41.704Z,100627.14
2019-06-08T02:15:09.358Z,100622.28
2019-06-08T02:17:37.094Z,100618.86
2019-06-08T02:20:04.735Z,100603.39
2019-06-08T02:22:33.084Z,100604.54
2019-06-08T02:25:00.907Z,100608.74
2019-06-08T02:27:29.281Z,100608.72
2019-06-08T02:29:56.991Z,100615.86
2019-06-08T02:32:24.646Z,100613.98
2019-06-08T02:34:52.320Z,100617.92
2019-06-08T02:37:20.032Z,100625.77
2019-06-08T02:39:47.681Z,100622.84
2019-06-08T02:42:15.328Z,100631.47
2019-06-08T02:44:42.979Z,100635.84
2019-06-08T02:47:10.637Z,100649.69
2019-06-08T02:49:39.794Z,100648.41
2019-06-08T02:52:07.543Z,100641.31
2019-06-08T02:54:37.189Z,100631.34
2019-06-08T02:57:04.556Z,100632.05
2019-06-08T02:59:32.911Z,100630.70
2019-06-08T03:02:00.712Z,100639.63
2019-06-08T03:04:29.800Z,100640.99
2019-06-08T03:06:57.632Z,100642.52
2019-06-08T03:09:25.350Z,100633.91
2019-06-08T03:11:52.997Z,100634.91
2019-06-08T03:14:20.951Z,100638.59
2019-06-08T03:16:48.593Z,100632.53
2019-06-08T03:19:22.455Z,100637.61
2019-06-08T03:21:45.821Z,100638.95
2019-06-08T03:24:13.468Z,100656.48
2019-06-08T03:26:41.890Z,100657.33
2019-06-08T03:29:10.597Z,100653.97
2019-06-08T03:31:46.089Z,100657.17
2019-06-08T03:34:08.502Z,100651.78
2019-06-08T03:36:43.783Z,100657.19
2019-06-08T03:39:05.849Z,100658.69
2019-06-08T03:41:34.285Z,100662.25
2019-06-08T03:44:02.848Z,100665.27
2019-06-08T03:46:30.560Z,100660.91
2019-06-08T03:48:58.258Z,100662.58
2019-06-08T03:51:25.899Z,100659.88
2019-06-08T03:53:53.634Z,100657.67
2019-06-08T03:56:21.284Z,100662.59
2019-06-08T03:58:49.020Z,100659.55
2019-06-08T04:01:16.707Z,100673.03
2019-06-08T04:03:46.025Z,100672.89
2019-06-08T04:06:14.043Z,100665.61
2019-06-08T04:08:42.833Z,100664.09
2019-06-08T04:11:11.062Z,100662.75
2019-06-08T04:13:39.919Z,100659.54
2019-06-08T04:16:07.867Z,100661.40
2019-06-08T04:18:35.511Z,100675.41
2019-06-08T04:21:03.178Z,100692.27
2019-06-08T04:23:30.834Z,100697.83
2019-06-08T04:25:58.494Z,100693.11
2019-06-08T04:28:26.142Z,100707.47
2019-06-08T04:30:53.797Z,100703.41
2019-06-08T04:33:21.501Z,100713.71
2019-06-08T04:35:50.756Z,100725.22
2019-06-08T04:38:18.703Z,100739.04
2019-06-08T04:40:48.036Z,100742.23
2019-06-08T04:43:15.745Z,100740.53
2019-06-08T04:45:45.183Z,100737.50
2019-06-08T04:48:12.766Z,100741.73
2019-06-08T04:50:40.860Z,100752.39
2019-06-08T04:53:08.685Z,100741.41
2019-06-08T04:55:36.352Z,100748.00
2019-06-08T04:58:04.015Z,100756.77
2019-06-08T05:00:32.277Z,100764.39
2019-06-08T05:03:00.087Z,100762.42
2019-06-08T05:05:27.854Z,100768.60
2019-06-08T05:07:55.560Z,100772.59
2019-06-08T05:10:25.240Z,100770.61
2019-06-08T05:12:52.898Z,100778.55
2019-06-08T05:15:20.580Z,100780.72
2019-06-08T05:17:49.725Z,100786.30
2019-06-08T05:20:17.667Z,100792.87
2019-06-08T05:22:45.538Z,100783.83
2019-06-08T05:25:13.463Z,100781.64
2019-06-08T05:27:41.245Z,100794.21
2019-06-08T05:30:09.191Z,100805.61
2019-06-08T05:32:36.997Z,100809.92
2019-06-08T05:35:04.656Z,100814.45
2019-06-08T05:37:32.301Z,100828.58
2019-06-08T05:39:59.971Z,100832.87
2019-06-08T05:42:27.620Z,100836.09
2019-06-08T05:44:55.307Z,100834.75
2019-06-08T05:47:22.939Z,100825.45
2019-06-08T05:49:50.592Z,100838.17
2019-06-08T05:52:18.242Z,100849.41
2019-06-08T05:54:45.904Z,100857.40
2019-06-08T05:57:13.547Z,100867.70
2019-06-08T05:59:42.085Z,100872.39
2019-06-08T06:02:09.854Z,100891.73
2019-06-08T06:04:38.023Z,100904.56
2019-06-08T06:07:05.703Z,100903.39
2019-06-08T06:09:33.870Z,100893.92
2019-06-08T06:12:01.516Z,100894.95
2019-06-08T06:14:29.248Z,100893.27
2019-06-08T06:16:56.988Z,100888.88
2019-06-08T06:19:24.632Z,100887.34
2019-06-08T06:21:52.276Z,100893.27
2019-06-08T06:24:19.926Z,100901.38
2019-06-08T06:26:47.583Z,100905.73
2019-06-08T06:29:15.237Z,100906.45
2019-06-08T06:31:43.649Z,100903.03
2019-06-08T06:34:12.052Z,100909.98
2019-06-08T06:36:39.696Z,100909.31
2019-06-08T06:39:07.344Z,100902.39
2019-06-08T06:41:35.005Z,100903.55
2019-06-08T06:44:02.740Z,100895.63
2019-06-08T06:46:30.503Z,100902.56
2019-06-08T06:48:58.157Z,100906.10
2019-06-08T06:51:26.927Z,100913.17
2019-06-08T06:53:54.672Z,100915.84
2019-06-08T06:56:22.344Z,100924.77
2019-06-08T06:58:49.983Z,100921.93
2019-06-08T07:01:17.732Z,100921.66
2019-06-08T07:03:46.063Z,100928.37
2019-06-08T07:06:13.820Z,100934.25
2019-06-08T07:08:42.116Z,100938.47
2019-06-08T07:11:09.916Z,100952.89
2019-06-08T07:13:37.564Z,100956.66
2019-06-08T07:16:17.756Z,100967.92
2019-06-08T07:18:34.597Z,100968.14
2019-06-08T07:21:02.243Z,100974.75
2019-06-08T07:23:29.901Z,100972.37
2019-06-08T07:25:58.664Z,100986.83
2019-06-08T07:28:26.401Z,100999.87
2019-06-08T07:30:54.909Z,101002.83
2019-06-08T07:33:22.597Z,100996.05
2019-06-08T07:35:51.452Z,101001.09
2019-06-08T07:38:19.295Z,101005.16
2019-06-08T07:40:47.220Z,101004.66
2019-06-08T07:43:16.088Z,100998.74
2019-06-08T07:45:43.745Z,101005.13
2019-06-08T07:48:11.402Z,101001.38
2019-06-08T07:50:39.154Z,100989.72
2019-06-08T07:53:06.869Z,100996.66
2019-06-08T07:55:34.544Z,100999.02
2019-06-08T07:58:02.206Z,100992.15
2019-06-08T08:00:29.860Z,100992.93
2019-06-08T08:02:58.303Z,100981.77
2019-06-08T08:05:26.048Z,100976.56
2019-06-08T08:07:54.775Z,100985.30
2019-06-08T08:10:22.535Z,100995.40
2019-06-08T08:12:50.916Z,101007.08
2019-06-08T08:15:18.645Z,101004.58
2019-06-08T08:17:46.369Z,101018.94
2019-06-08T08:20:14.014Z,101010.55
2019-06-08T08:22:41.655Z,101017.25
2019-06-08T08:25:09.318Z,101017.92
2019-06-08T08:27:37.619Z,101023.47
2019-06-08T08:30:08.162Z,101029.00
2019-06-08T08:32:37.814Z,101023.11
2019-06-08T08:35:04.282Z,101026.37
2019-06-08T08:37:31.938Z,101015.54
2019-06-08T08:40:01.351Z,101014.03
2019-06-08T08:42:30.116Z,101008.38
2019-06-08T08:45:02.698Z,101022.98
2019-06-08T08:47:27.774Z,101039.64
2019-06-08T08:49:58.703Z,101039.64
2019-06-08T08:52:34.486Z,101046.45
2019-06-08T08:54:59.128Z,101055.23
2019-06-08T08:57:24.805Z,101058.97
2019-06-08T08:59:55.191Z,101064.71
2019-06-08T09:02:21.900Z,101058.24
2019-06-08T09:04:50.641Z,101068.70
2019-06-08T09:07:18.915Z,101070.89
2019-06-08T09:09:48.233Z,101064.53
2019-06-08T09:12:18.222Z,101069.83
2019-06-08T09:14:47.749Z,101075.48
2019-06-08T09:17:14.832Z,101083.98
2019-06-08T09:19:42.493Z,101081.26
2019-06-08T09:22:10.141Z,101085.95
2019-06-08T09:24:39.080Z,101081.08
2019-06-08T09:27:08.015Z,101081.92
2019-06-08T09:29:38.593Z,101078.54
2019-06-08T09:32:05.389Z,101075.30
2019-06-08T09:34:33.121Z,101082.93
2019-06-08T09:37:02.881Z,101092.61
2019-06-08T09:39:30.136Z,101090.91
2019-06-08T09:42:00.435Z,101088.03
2019-06-08T09:44:28.110Z,101089.73
2019-06-08T09:46:59.075Z,101083.97
2019-06-08T09:49:27.883Z,101079.86
2019-06-08T09:51:56.492Z,101088.64
2019-06-08T09:54:24.068Z,101092.93
2019-06-08T09:56:51.777Z,101090.37
2019-06-08T09:59:19.433Z,101098.17
2019-06-08T10:01:47.249Z,101102.19
2019-06-08T10:04:14.933Z,101097.48
2019-06-08T10:06:42.593Z,101090.41
2019-06-08T10:09:10.270Z,101086.48
2019-06-08T10:11:38.117Z,101090.13
2019-06-08T10:14:11.594Z,101087.02
2019-06-08T10:16:38.012Z,101096.38
2019-06-08T10:19:07.063Z,101095.14
2019-06-08T10:21:33.997Z,101106.58
2019-06-08T10:24:04.697Z,101100.53
2019-06-08T10:26:31.016Z,101089.55
2019-06-08T10:29:02.222Z,101087.54
2019-06-08T10:31:38.980Z,101089.91
2019-06-08T10:34:01.575Z,101084.86
2019-06-08T10:36:28.401Z,101089.27
2019-06-08T10:38:59.386Z,101088.66
2019-06-08T10:41:27.863Z,101089.88
2019-06-08T10:43:57.030Z,101092.62
2019-06-08T10:46:24.952Z,101092.09
2019-06-08T10:48:52.616Z,101094.13
2019-06-08T10:51:20.283Z,101100.44
2019-06-08T10:53:52.076Z,101095.60
2019-06-08T10:56:18.835Z,101086.23
2019-06-08T10:58:49.454Z,101087.09
2019-06-08T11:01:18.593Z,101072.78
2019-06-08T11:03:45.429Z,101076.41
2019-06-08T11:06:13.606Z,101070.91
2019-06-08T11:08:41.529Z,101069.31
2019-06-08T11:11:11.752Z,101069.23
2019-06-08T11:13:38.920Z,101062.11
2019-06-08T11:16:08.401Z,101069.04
2019-06-08T11:18:35.929Z,101067.23
2019-06-08T11:21:05.804Z,101075.27
2019-06-08T11:23:33.929Z,101072.72
2019-06-08T11:26:04.629Z,101063.58
2019-06-08T11:28:30.935Z,101066.12
2019-06-08T11:30:59.688Z,101062.84
2019-06-08T11:33:30.318Z,101067.10
2019-06-08T11:35:58.174Z,101061.69
2019-06-08T11:38:28.717Z,101057.09
2019-06-08T11:40:57.924Z,101061.45
2019-06-08T11:43:24.912Z,101057.77
2019-06-08T11:45:52.586Z,101055.66
2019-06-08T11:48:20.315Z,101052.41
2019-06-08T11:50:49.048Z,101054.64
2019-06-08T11:53:18.133Z,101059.52
2019-06-08T11:55:50.658Z,101057.91
2019-06-08T11:58:19.206Z,101059.27
2019-06-08T12:00:44.893Z,101058.41
2019-06-08T12:03:13.108Z,101059.91
2019-06-08T12:05:40.985Z,101058.95
2019-06-08T12:08:08.856Z,101062.28
2019-06-08T12:10:38.224Z,101070.31
2019-06-08T12:13:07.117Z,101063.75
2019-06-08T12:15:35.400Z,101062.64
2019-06-08T12:18:03.399Z,101066.83
2019-06-08T12:20:31.320Z,101063.39
2019-06-08T12:22:59.059Z,101067.54
2019-06-08T12:25:26.846Z,101071.47
2019-06-08T12:27:54.792Z,101073.80
2019-06-08T12:30:26.224Z,101077.30
2019-06-08T12:32:51.884Z,101067.48
2019-06-08T12:35:19.540Z,101067.78
2019-06-08T12:37:48.391Z,101068.84
2019-06-08T12:40:18.972Z,101072.59
2019-06-08T12:42:45.931Z,101071.42
2019-06-08T12:45:13.587Z,101079.68
2019-06-08T12:47:41.262Z,101075.23
2019-06-08T12:50:11.794Z,101085.69
2019-06-08T12:52:39.148Z,101083.34
2019-06-08T12:55:12.577Z,101075.14
2019-06-08T12:57:36.995Z,101081.31
2019-06-08T13:00:04.656Z,101086.57
2019-06-08T13:02:32.323Z,101090.00
2019-06-08T13:04:59.993Z,101086.10
2019-06-08T13:07:28.162Z,101074.92
2019-06-08T13:09:58.173Z,101071.12
2019-06-08T13:12:25.364Z,101076.84
2019-06-08T13:14:53.017Z,101069.98
2019-06-08T13:17:21.344Z,101073.37
2019-06-08T13:19:49.220Z,101062.20
2019-06-08T13:22:19.341Z,101065.93
2019-06-08T13:24:47.889Z,101062.66
2019-06-08T13:27:19.204Z,101073.55
2019-06-08T13:29:45.004Z,101067.48
2019-06-08T13:32:13.804Z,101074.06
2019-06-08T13:34:41.607Z,101073.27
2019-06-08T13:37:10.529Z,101074.05
2019-06-08T13:39:38.876Z,101082.30
2019-06-08T13:42:07.771Z,101079.41
2019-06-08T13:44:37.690Z,101078.73
2019-06-08T13:47:05.079Z,101067.43
2019-06-08T13:49:32.747Z,101060.53
2019-06-08T13:52:00.400Z,101056.15
2019-06-08T13:54:31.203Z,101066.22
2019-06-08T13:56:58.930Z,101063.45
2019-06-08T13:59:30.323Z,101071.58
2019-06-08T14:01:57.941Z,101080.05
2019-06-08T14:04:25.637Z,101072.80
2019-06-08T14:06:53.291Z,101067.57
2019-06-08T14:09:22.077Z,101068.93
2019-06-08T14:11:50.320Z,101070.87
2019-06-08T14:14:19.986Z,101075.11
2019-06-08T14:16:50.400Z,101074.55
2019-06-08T14:19:19.344Z,101073.98
2019-06-08T14:21:47.649Z,101079.56
2019-06-08T14:24:18.199Z,101077.83
2019-06-08T14:26:44.887Z,101081.73
2019-06-08T14:29:12.559Z,101077.11
2019-06-08T14:31:40.214Z,101076.70
2019-06-08T14:34:10.311Z,101072.88
2019-06-08T14:36:40.628Z,101081.08
2019-06-08T14:39:10.392Z,101084.56
2019-06-08T14:41:35.993Z,101089.65
2019-06-08T14:44:03.659Z,101086.78
2019-06-08T14:46:31.326Z,101082.26
2019-06-08T14:48:58.989Z,101084.61
2019-06-08T14:51:47.798Z,101089.46
2019-06-08T14:54:17.880Z,101097.66
2019-06-08T14:56:44.412Z,101090.84
2019-06-08T14:59:12.072Z,101087.38
2019-06-08T15:01:39.733Z,101088.94
2019-06-08T15:04:08.951Z,101097.95
2019-06-08T15:06:38.196Z,101097.92
2019-06-08T15:09:08.524Z,101078.93
2019-06-08T15:11:37.962Z,101097.55
2019-06-08T15:14:04.800Z,101086.64
2019-06-08T15:16:32.844Z,101091.13
2019-06-08T15:19:00.751Z,101090.72
2019-06-08T15:21:32.415Z,101089.45
2019-06-08T15:23:58.122Z,101091.66
2019-06-08T15:26:32.802Z,101096.16
2019-06-08T15:28:55.241Z,101098.14
2019-06-08T15:31:23.124Z,101094.72
2019-06-08T15:33:50.840Z,101098.77
2019-06-08T15:36:20.841Z,101098.40
2019-06-08T15:38:48.096Z,101091.59
2019-06-08T15:41:18.094Z,101085.04
2019-06-08T15:43:45.181Z,101087.76
2019-06-08T15:46:12.844Z,101090.48
2019-06-08T15:48:40.513Z,101095.85
2019-06-08T15:51:08.185Z,101100.75
2019-06-08T15:53:37.878Z,101092.40
2019-06-08T15:56:05.213Z,101091.26
2019-06-08T15:58:33.970Z,101098.25
2019-06-08T16:01:01.719Z,101087.69
2019-06-08T16:03:29.428Z,101088.42
2019-06-08T16:05:57.127Z,101080.00
2019-06-08T16:08:25.906Z,101086.62
2019-06-08T16:10:53.937Z,101085.77
2019-06-08T16:13:21.599Z,101086.36
2019-06-08T16:15:49.343Z,101081.06
2019-06-08T16:18:17.024Z,101083.83
2019-06-08T16:20:44.750Z,101084.70
2019-06-08T16:23:12.403Z,101080.78
2019-06-08T16:25:40.109Z,101083.67
2019-06-08T16:28:07.823Z,101082.61
2019-06-08T16:30:35.490Z,101079.22
2019-06-08T16:33:03.144Z,101077.94
2019-06-08T16:35:31.519Z,101079.95
2019-06-08T16:37:59.544Z,101075.33
2019-06-08T16:40:27.642Z,101076.17
2019-06-08T16:42:55.453Z,101079.81
2019-06-08T16:45:23.113Z,101084.73
2019-06-08T16:47:50.774Z,101078.84
2019-06-08T16:50:24.408Z,101083.78
2019-06-08T16:52:47.857Z,101088.16
2019-06-08T16:55:15.516Z,101086.50
2019-06-08T16:57:43.185Z,101078.95
2019-06-08T17:00:30.582Z,101080.72
2019-06-08T17:02:40.352Z,101083.20
2019-06-08T17:05:08.020Z,101085.38
2019-06-08T17:07:35.687Z,101081.73
2019-06-08T17:10:03.347Z,101079.77
2019-06-08T17:12:31.007Z,101083.64
2019-06-08T17:14:58.670Z,101083.78
2019-06-08T17:17:26.338Z,101081.95
2019-06-08T17:19:54.103Z,101087.21
2019-06-08T17:22:21.824Z,101088.69
2019-06-08T17:24:49.564Z,101084.80
2019-06-08T17:27:26.400Z,101087.87
2019-06-08T17:29:46.583Z,101086.70
2019-06-08T17:32:14.249Z,101087.75
2019-06-08T17:34:42.443Z,101084.75
2019-06-08T17:37:10.355Z,101087.63
2019-06-08T17:39:38.011Z,101083.63
2019-06-08T17:42:05.672Z,101091.28
2019-06-08T17:44:34.891Z,101093.95
2019-06-08T17:47:02.779Z,101095.25
2019-06-08T17:49:30.431Z,101100.53
2019-06-08T17:51:58.103Z,101098.20
2019-06-08T17:54:25.766Z,101097.91
2019-06-08T17:56:53.428Z,101109.88
2019-06-08T17:59:21.080Z,101109.83
2019-06-08T18:01:48.757Z,101109.26
2019-06-08T18:04:17.549Z,101116.19
2019-06-08T18:06:47.374Z,101110.42
2019-06-08T18:09:14.724Z,101111.77
2019-06-08T18:11:43.795Z,101117.94
2019-06-08T18:14:11.914Z,101122.41
2019-06-08T18:16:42.135Z,101119.02
2019-06-08T18:19:09.008Z,101121.16
2019-06-08T18:21:38.896Z,101126.92
2019-06-08T18:24:07.783Z,101123.57
2019-06-08T18:26:38.334Z,101126.30
2019-06-08T18:29:04.756Z,101134.55
2019-06-08T18:31:32.500Z,101134.70
2019-06-08T18:34:02.109Z,101138.53
2019-06-08T18:36:29.516Z,101144.32
2019-06-08T18:38:58.142Z,101147.44
2019-06-08T18:41:27.140Z,101147.97
2019-06-08T18:43:54.912Z,101154.81
2019-06-08T18:46:22.571Z,101149.32
2019-06-08T18:48:50.244Z,101153.60
2019-06-08T18:51:17.892Z,101156.03
2019-06-08T18:54:05.231Z,101154.35
2019-06-08T18:56:14.915Z,101160.42
2019-06-08T18:58:43.679Z,101167.56
2019-06-08T19:01:11.535Z,101166.25
2019-06-08T19:03:43.227Z,101169.98
2019-06-08T19:06:10.405Z,101177.08
2019-06-08T19:08:40.927Z,101182.16
2019-06-08T19:11:08.120Z,101191.63
2019-06-08T19:13:37.860Z,101188.24
2019-06-08T19:16:07.573Z,101191.93
2019-06-08T19:18:35.055Z,101202.06
2019-06-08T19:21:02.703Z,101205.42
2019-06-08T19:23:30.422Z,101214.08
2019-06-08T19:26:00.435Z,101213.01
2019-06-08T19:28:35.685Z,101220.14
2019-06-08T19:30:58.291Z,101217.55
2019-06-08T19:33:28.022Z,101219.63
2019-06-08T19:35:58.181Z,101221.24
2019-06-08T19:38:27.699Z,101227.69
2019-06-08T19:40:54.190Z,101236.08
2019-06-08T19:43:21.851Z,101239.81
2019-06-08T19:45:51.624Z,101241.41
2019-06-08T19:48:19.169Z,101235.50
2019-06-08T19:50:47.240Z,101250.16
2019-06-08T19:53:18.306Z,101248.25
2019-06-08T19:55:51.156Z,101257.02
2019-06-08T19:58:14.908Z,101258.23
2019-06-08T20:00:44.305Z,101259.46
2019-06-08T20:03:12.013Z,101261.97
2019-06-08T20:05:41.149Z,101268.62
2019-06-08T20:08:08.948Z,101276.53
2019-06-08T20:10:36.605Z,101272.91
2019-06-08T20:13:04.263Z,101279.55
2019-06-08T20:15:31.924Z,101287.26
2019-06-08T20:17:59.594Z,101292.56
2019-06-08T20:20:27.942Z,101289.73
2019-06-08T20:22:58.351Z,101298.72
2019-06-08T20:25:27.656Z,101298.27
2019-06-08T20:27:54.517Z,101302.17
2019-06-08T20:30:22.168Z,101301.95
2019-06-08T20:32:52.317Z,101308.02
2019-06-08T20:35:19.308Z,101305.04
2019-06-08T20:37:47.847Z,101308.69
2019-06-08T20:40:17.874Z,101311.42
2019-06-08T20:42:49.069Z,101312.30
2019-06-08T20:45:14.418Z,101318.15
2019-06-08T20:47:42.376Z,101319.14
2019-06-08T20:50:10.143Z,101320.67
2019-06-08T20:52:37.924Z,101324.09
2019-06-08T20:55:07.738Z,101324.22
2019-06-08T20:57:35.096Z,101328.28
2019-06-08T21:00:08.513Z,101336.16
2019-06-08T21:02:32.133Z,101340.69
2019-06-08T21:05:00.001Z,101341.82
2019-06-08T21:07:28.136Z,101341.75
2019-06-08T21:09:58.154Z,101342.88
2019-06-08T21:12:25.321Z,101341.97
2019-06-08T21:14:54.242Z,101348.34
2019-06-08T21:17:22.346Z,101346.22
2019-06-08T21:19:50.890Z,101346.78
2019-06-08T21:22:18.668Z,101350.92
2019-06-08T21:24:50.032Z,101351.23
2019-06-08T21:27:17.361Z,101353.86
2019-06-08T21:29:53.698Z,101350.86
2019-06-08T21:32:14.466Z,101362.88
2019-06-08T21:34:42.116Z,101357.41
2019-06-08T21:37:09.793Z,101356.74
2019-06-08T21:39:39.105Z,101357.24
2019-06-08T21:42:07.928Z,101354.50
2019-06-08T21:44:37.201Z,101360.27
2019-06-08T21:47:05.043Z,101351.24
2019-06-08T21:49:32.701Z,101361.72
2019-06-08T21:52:01.288Z,101359.47
2019-06-08T21:54:29.282Z,101366.34
2019-06-08T21:56:59.276Z,101369.53
2019-06-08T21:59:26.287Z,101374.94
2019-06-08T22:01:55.205Z,101377.73
2019-06-08T22:04:23.613Z,101381.45
2019-06-08T22:06:51.989Z,101383.39
2019-06-08T22:09:19.698Z,101386.23
2019-06-08T22:11:47.354Z,101399.67
2019-06-08T22:14:15.013Z,101397.17
2019-06-08T22:16:42.664Z,101396.87
2019-06-08T22:19:10.332Z,101403.08
2019-06-08T22:21:37.989Z,101409.42
2019-06-08T22:24:07.768Z,101410.05
2019-06-08T22:26:35.001Z,101411.85
2019-06-08T22:29:03.716Z,101411.69
2019-06-08T22:31:31.587Z,101412.05
2019-06-08T22:34:02.048Z,101417.14
2019-06-08T22:36:28.604Z,101416.95
2019-06-08T22:38:58.859Z,101413.23
2019-06-08T22:41:28.072Z,101417.14
2019-06-08T22:43:58.879Z,101419.83
2019-06-08T22:46:25.852Z,101425.09
2019-06-08T22:48:54.591Z,101424.12
2019-06-08T22:51:22.992Z,101428.52
2019-06-08T22:53:50.649Z,101432.39
2019-06-08T22:56:18.486Z,101432.55
2019-06-08T22:58:48.003Z,101423.41
2019-06-08T23:01:18.187Z,101436.13
2019-06-08T23:03:47.447Z,101432.55
2019-06-08T23:06:17.414Z,101439.12
2019-06-08T23:08:44.199Z,101435.81
2019-06-08T23:11:11.866Z,101434.23
2019-06-08T23:13:39.511Z,101435.84
2019-06-08T23:16:08.803Z,101435.92
2019-06-08T23:18:37.334Z,101440.24
2019-06-08T23:21:06.518Z,101434.38
2019-06-08T23:23:34.504Z,101437.32
2019-06-08T23:26:03.730Z,101446.00
2019-06-08T23:28:31.511Z,101451.10
2019-06-08T23:31:10.660Z,101445.86
2019-06-08T23:33:28.508Z,101447.34
2019-06-08T23:36:33.616Z,101446.97
2019-06-08T23:38:27.750Z,101445.83
2019-06-08T23:40:54.864Z,101438.49
2019-06-08T23:43:22.508Z,101439.66
2019-06-08T23:45:50.159Z,101437.66
2019-06-08T23:48:17.813Z,101440.84
2019-06-08T23:50:47.444Z,101444.25
2019-06-08T23:53:14.812Z,101438.11
2019-06-08T23:55:42.465Z,101435.30
2019-06-08T23:58:11.374Z,101440.94
